createdAt,value
2022-10-27T00:00:45.394Z,1018.45
2022-10-27T00:01:45.449Z,1018.42
2022-10-27T00:02:45.415Z,1018.45
2022-10-27T00:03:45.371Z,1018.43
2022-10-27T00:04:45.368Z,1018.48
2022-10-27T00:05:45.359Z,1018.47
2022-10-27T00:06:45.355Z,1018.48
2022-10-27T00:07:45.341Z,1018.51
2022-10-27T00:08:45.340Z,1018.48
2022-10-27T00:09:45.325Z,1018.52
2022-10-27T00:10:45.407Z,1018.52
2022-10-27T00:11:45.377Z,1018.53
2022-10-27T00:12:45.305Z,1018.54
2022-10-27T00:13:45.303Z,1018.56
2022-10-27T00:14:45.291Z,1018.54
2022-10-27T00:15:45.287Z,1018.63
2022-10-27T00:16:45.271Z,1018.61
2022-10-27T00:17:45.267Z,1018.62
2022-10-27T00:18:45.260Z,1018.61
2022-10-27T00:19:45.253Z,1018.67
2022-10-27T00:20:45.248Z,1018.64
2022-10-27T00:21:45.261Z,1018.65
2022-10-27T00:22:45.233Z,1018.62
2022-10-27T00:23:45.220Z,1018.66
2022-10-27T00:24:45.215Z,1018.67
2022-10-27T00:25:45.207Z,1018.68
2022-10-27T00:26:45.203Z,1018.66
2022-10-27T00:27:45.194Z,1018.71
2022-10-27T00:28:45.199Z,1018.68
2022-10-27T00:29:45.180Z,1018.68
2022-10-27T00:30:45.167Z,1018.70
2022-10-27T00:31:45.165Z,1018.71
2022-10-27T00:32:45.156Z,1018.76
2022-10-27T00:33:45.149Z,1018.77
2022-10-27T00:34:45.142Z,1018.78
2022-10-27T00:35:45.133Z,1018.76
2022-10-27T00:36:45.127Z,1018.82
2022-10-27T00:37:45.116Z,1018.82
2022-10-27T00:38:45.111Z,1018.85
2022-10-27T00:39:45.103Z,1018.83
2022-10-27T00:40:45.096Z,1018.84
2022-10-27T00:41:45.089Z,1018.81
2022-10-27T00:42:45.081Z,1018.83
2022-10-27T00:43:45.072Z,1018.82
2022-10-27T00:44:45.060Z,1018.86
2022-10-27T00:45:45.060Z,1018.86
2022-10-27T00:46:45.055Z,1018.88
2022-10-27T00:47:45.043Z,1018.84
2022-10-27T00:48:45.035Z,1018.87
2022-10-27T00:49:45.029Z,1018.87
2022-10-27T00:50:45.036Z,1018.86
2022-10-27T00:51:45.009Z,1018.88
2022-10-27T00:52:45.006Z,1018.90
2022-10-27T00:53:44.996Z,1018.96
2022-10-27T00:54:45.012Z,1018.97
2022-10-27T00:55:44.984Z,1018.98
2022-10-27T00:56:44.975Z,1018.96
2022-10-27T00:57:44.971Z,1019.01
2022-10-27T00:58:44.963Z,1019.01
2022-10-27T00:59:44.954Z,1019.06
2022-10-27T01:00:44.997Z,1019.04
2022-10-27T01:01:45.065Z,1019.08
2022-10-27T01:02:44.935Z,1019.07
2022-10-27T01:03:44.923Z,1019.06
2022-10-27T01:04:44.915Z,1019.08
2022-10-27T01:05:44.905Z,1019.08
2022-10-27T01:06:44.902Z,1019.05
2022-10-27T01:07:44.895Z,1019.11
2022-10-27T01:08:44.895Z,1019.07
2022-10-27T01:09:44.881Z,1019.09
2022-10-27T01:10:44.872Z,1019.08
2022-10-27T01:11:44.863Z,1019.11
2022-10-27T01:12:44.857Z,1019.10
2022-10-27T01:13:44.848Z,1019.10
2022-10-27T01:14:44.843Z,1019.13
2022-10-27T01:15:44.846Z,1019.13
2022-10-27T01:16:44.828Z,1019.14
2022-10-27T01:17:44.821Z,1019.14
2022-10-27T01:18:44.810Z,1019.13
2022-10-27T01:19:44.804Z,1019.10
2022-10-27T01:20:44.797Z,1019.11
2022-10-27T01:21:44.795Z,1019.13
2022-10-27T01:22:44.792Z,1019.16
2022-10-27T01:23:44.774Z,1019.10
2022-10-27T01:24:44.767Z,1019.16
2022-10-27T01:25:44.760Z,1019.17
2022-10-27T01:26:44.750Z,1019.15
2022-10-27T01:27:44.743Z,1019.15
2022-10-27T01:28:44.741Z,1019.16
2022-10-27T01:29:44.755Z,1019.17
2022-10-27T01:30:44.721Z,1019.16
2022-10-27T01:31:46.830Z,1019.20
2022-10-27T01:32:44.702Z,1019.16
2022-10-27T01:33:44.698Z,1019.22
2022-10-27T01:34:44.689Z,1019.23
2022-10-27T01:35:44.683Z,1019.23
2022-10-27T01:36:44.677Z,1019.22
2022-10-27T01:37:44.668Z,1019.21
2022-10-27T01:38:44.674Z,1019.22
2022-10-27T01:39:44.654Z,1019.23
2022-10-27T01:40:44.645Z,1019.21
2022-10-27T01:41:44.639Z,1019.23
2022-10-27T01:42:44.631Z,1019.18
2022-10-27T01:43:44.623Z,1019.23
2022-10-27T01:44:44.619Z,1019.18
2022-10-27T01:45:44.620Z,1019.18
2022-10-27T01:46:44.604Z,1019.20
2022-10-27T01:47:44.593Z,1019.18
2022-10-27T01:48:44.582Z,1019.20
2022-10-27T01:49:44.580Z,1019.24
2022-10-27T01:51:00.520Z,1019.20
2022-10-27T01:51:44.567Z,1019.23
2022-10-27T01:52:44.577Z,1019.24
2022-10-27T01:53:44.550Z,1019.23
2022-10-27T01:54:44.541Z,1019.25
2022-10-27T01:55:44.540Z,1019.27
2022-10-27T01:56:44.524Z,1019.25
2022-10-27T01:57:44.521Z,1019.27
2022-10-27T01:58:44.508Z,1019.29
2022-10-27T01:59:44.501Z,1019.31
2022-10-27T02:00:44.534Z,1019.30
2022-10-27T02:01:44.487Z,1019.29
2022-10-27T02:02:44.476Z,1019.29
2022-10-27T02:03:44.470Z,1019.33
2022-10-27T02:04:44.474Z,1019.31
2022-10-27T02:05:44.456Z,1019.34
2022-10-27T02:06:44.456Z,1019.35
2022-10-27T02:07:44.439Z,1019.38
2022-10-27T02:08:44.432Z,1019.42
2022-10-27T02:09:44.423Z,1019.41
2022-10-27T02:10:44.419Z,1019.44
2022-10-27T02:11:44.431Z,1019.45
2022-10-27T02:12:44.401Z,1019.45
2022-10-27T02:13:44.412Z,1019.45
2022-10-27T02:14:44.390Z,1019.45
2022-10-27T02:15:44.374Z,1019.42
2022-10-27T02:16:44.372Z,1019.41
2022-10-27T02:17:44.363Z,1019.38
2022-10-27T02:18:44.369Z,1019.40
2022-10-27T02:19:44.351Z,1019.36
2022-10-27T02:20:44.341Z,1019.34
2022-10-27T02:21:44.336Z,1019.41
2022-10-27T02:22:46.211Z,1019.38
2022-10-27T02:23:44.318Z,1019.38
2022-10-27T02:24:44.311Z,1019.32
2022-10-27T02:25:44.315Z,1019.30
2022-10-27T02:26:44.295Z,1019.37
2022-10-27T02:27:44.287Z,1019.41
2022-10-27T02:28:44.280Z,1019.43
2022-10-27T02:29:44.271Z,1019.45
2022-10-27T02:30:44.275Z,1019.46
2022-10-27T02:31:44.258Z,1019.49
2022-10-27T02:32:44.270Z,1019.51
2022-10-27T02:33:44.241Z,1019.52
2022-10-27T02:34:44.234Z,1019.52
2022-10-27T02:35:46.395Z,1019.53
2022-10-27T02:36:44.214Z,1019.55
2022-10-27T02:37:44.213Z,1019.52
2022-10-27T02:38:44.203Z,1019.51
2022-10-27T02:39:44.201Z,1019.54
2022-10-27T02:40:44.189Z,1019.50
2022-10-27T02:41:44.180Z,1019.52
2022-10-27T02:42:44.178Z,1019.51
2022-10-27T02:43:44.159Z,1019.53
2022-10-27T02:44:44.157Z,1019.52
2022-10-27T02:45:44.151Z,1019.48
2022-10-27T02:46:45.473Z,1019.49
2022-10-27T02:47:44.134Z,1019.49
2022-10-27T02:48:44.126Z,1019.53
2022-10-27T02:49:44.120Z,1019.53
2022-10-27T02:50:44.114Z,1019.52
2022-10-27T02:51:44.101Z,1019.57
2022-10-27T02:52:44.095Z,1019.58
2022-10-27T02:53:44.097Z,1019.56
2022-10-27T02:54:44.081Z,1019.61
2022-10-27T02:55:44.071Z,1019.61
2022-10-27T02:56:44.064Z,1019.63
2022-10-27T02:57:44.052Z,1019.60
2022-10-27T02:58:44.051Z,1019.61
2022-10-27T02:59:44.164Z,1019.59
2022-10-27T03:00:44.081Z,1019.60
2022-10-27T03:01:44.101Z,1019.60
2022-10-27T03:02:44.022Z,1019.63
2022-10-27T03:03:44.011Z,1019.61
2022-10-27T03:04:43.997Z,1019.64
2022-10-27T03:05:45.573Z,1019.60
2022-10-27T03:06:43.987Z,1019.62
2022-10-27T03:07:43.979Z,1019.62
2022-10-27T03:08:43.973Z,1019.64
2022-10-27T03:09:43.964Z,1019.67
2022-10-27T03:10:43.956Z,1019.68
2022-10-27T03:11:46.169Z,1019.71
2022-10-27T03:12:43.939Z,1019.73
2022-10-27T03:13:43.927Z,1019.74
2022-10-27T03:14:43.943Z,1019.71
2022-10-27T03:15:43.916Z,1019.76
2022-10-27T03:16:43.907Z,1019.78
2022-10-27T03:17:43.903Z,1019.76
2022-10-27T03:18:43.897Z,1019.78
2022-10-27T03:19:43.887Z,1019.80
2022-10-27T03:20:43.874Z,1019.83
2022-10-27T03:21:43.874Z,1019.83
2022-10-27T03:22:43.862Z,1019.83
2022-10-27T03:23:43.853Z,1019.81
2022-10-27T03:24:43.846Z,1019.82
2022-10-27T03:25:47.380Z,1019.81
2022-10-27T03:26:43.843Z,1019.79
2022-10-27T03:27:43.830Z,1019.78
2022-10-27T03:28:43.824Z,1019.80
2022-10-27T03:29:43.874Z,1019.79
2022-10-27T03:30:43.823Z,1019.80
2022-10-27T03:31:43.801Z,1019.82
2022-10-27T03:32:43.784Z,1019.78
2022-10-27T03:33:43.777Z,1019.87
2022-10-27T03:34:43.769Z,1019.86
2022-10-27T03:35:43.758Z,1019.92
2022-10-27T03:36:43.810Z,1019.86
2022-10-27T03:37:43.741Z,1019.92
2022-10-27T03:38:43.743Z,1019.90
2022-10-27T03:39:43.745Z,1019.90
2022-10-27T03:40:43.719Z,1019.91
2022-10-27T03:41:43.729Z,1019.91
2022-10-27T03:42:43.704Z,1019.95
2022-10-27T03:43:43.704Z,1019.97
2022-10-27T03:44:43.687Z,1019.98
2022-10-27T03:45:43.681Z,1020.01
2022-10-27T03:46:43.672Z,1020.02
2022-10-27T03:47:43.658Z,1020.00
2022-10-27T03:48:43.664Z,1020.04
2022-10-27T03:49:43.647Z,1020.04
2022-10-27T03:50:43.640Z,1020.02
2022-10-27T03:51:43.632Z,1020.03
2022-10-27T03:52:43.623Z,1020.03
2022-10-27T03:53:43.616Z,1020.02
2022-10-27T03:54:43.613Z,1020.01
2022-10-27T03:55:43.600Z,1020.06
2022-10-27T03:56:43.589Z,1020.06
2022-10-27T03:57:43.584Z,1020.05
2022-10-27T03:58:43.579Z,1020.05
2022-10-27T03:59:43.564Z,1020.06
2022-10-27T04:00:43.608Z,1020.06
2022-10-27T04:01:43.659Z,1020.08
2022-10-27T04:02:43.543Z,1020.06
2022-10-27T04:03:43.534Z,1020.10
2022-10-27T04:04:43.528Z,1020.10
2022-10-27T04:05:43.520Z,1020.13
2022-10-27T04:06:43.506Z,1020.18
2022-10-27T04:07:47.133Z,1020.17
2022-10-27T04:08:43.494Z,1020.20
2022-10-27T04:09:43.487Z,1020.17
2022-10-27T04:10:43.484Z,1020.20
2022-10-27T04:11:43.472Z,1020.23
2022-10-27T04:12:43.466Z,1020.20
2022-10-27T04:13:43.453Z,1020.20
2022-10-27T04:14:43.447Z,1020.24
2022-10-27T04:15:43.458Z,1020.29
2022-10-27T04:16:43.431Z,1020.30
2022-10-27T04:17:43.431Z,1020.34
2022-10-27T04:18:43.497Z,1020.34
2022-10-27T04:19:43.414Z,1020.36
2022-10-27T04:20:43.396Z,1020.42
2022-10-27T04:21:43.391Z,1020.39
2022-10-27T04:22:43.386Z,1020.42
2022-10-27T04:23:43.370Z,1020.44
2022-10-27T04:24:43.367Z,1020.47
2022-10-27T04:25:43.357Z,1020.47
2022-10-27T04:26:43.350Z,1020.53
2022-10-27T04:27:43.341Z,1020.52
2022-10-27T04:28:43.335Z,1020.53
2022-10-27T04:29:43.345Z,1020.52
2022-10-27T04:30:43.318Z,1020.57
2022-10-27T04:31:43.310Z,1020.54
2022-10-27T04:32:43.306Z,1020.53
2022-10-27T04:33:43.291Z,1020.56
2022-10-27T04:34:43.281Z,1020.51
2022-10-27T04:35:43.275Z,1020.55
2022-10-27T04:36:43.269Z,1020.52
2022-10-27T04:37:43.263Z,1020.52
2022-10-27T04:38:43.253Z,1020.52
2022-10-27T04:39:43.247Z,1020.52
2022-10-27T04:40:43.233Z,1020.54
2022-10-27T04:41:43.246Z,1020.56
2022-10-27T04:42:43.222Z,1020.56
2022-10-27T04:43:43.257Z,1020.59
2022-10-27T04:44:43.209Z,1020.58
2022-10-27T04:45:43.197Z,1020.59
2022-10-27T04:46:43.195Z,1020.61
2022-10-27T04:47:43.179Z,1020.62
2022-10-27T04:48:43.172Z,1020.59
2022-10-27T04:49:43.178Z,1020.63
2022-10-27T04:50:43.155Z,1020.63
2022-10-27T04:51:43.147Z,1020.61
2022-10-27T04:52:44.466Z,1020.65
2022-10-27T04:53:43.127Z,1020.66
2022-10-27T04:54:43.121Z,1020.66
2022-10-27T04:55:43.112Z,1020.69
2022-10-27T04:56:43.114Z,1020.71
2022-10-27T04:57:43.098Z,1020.70
2022-10-27T04:58:43.089Z,1020.67
2022-10-27T04:59:43.087Z,1020.70
2022-10-27T05:00:43.067Z,1020.70
2022-10-27T05:01:43.110Z,1020.70
2022-10-27T05:02:43.102Z,1020.73
2022-10-27T05:03:43.048Z,1020.75
2022-10-27T05:04:43.041Z,1020.76
2022-10-27T05:05:43.034Z,1020.76
2022-10-27T05:06:43.030Z,1020.76
2022-10-27T05:07:43.013Z,1020.77
2022-10-27T05:08:43.066Z,1020.79
2022-10-27T05:09:43.008Z,1020.78
2022-10-27T05:10:42.993Z,1020.78
2022-10-27T05:11:42.989Z,1020.79
2022-10-27T05:12:42.976Z,1020.85
2022-10-27T05:13:42.974Z,1020.85
2022-10-27T05:14:42.956Z,1020.86
2022-10-27T05:15:42.950Z,1020.87
2022-10-27T05:16:42.957Z,1020.91
2022-10-27T05:17:42.935Z,1020.88
2022-10-27T05:18:42.924Z,1020.88
2022-10-27T05:19:42.919Z,1020.88
2022-10-27T05:20:42.910Z,1020.85
2022-10-27T05:21:42.901Z,1020.88
2022-10-27T05:22:42.896Z,1020.85
2022-10-27T05:23:45.322Z,1020.87
2022-10-27T05:24:42.877Z,1020.86
2022-10-27T05:26:42.861Z,1020.89
2022-10-27T05:27:42.850Z,1020.91
2022-10-27T05:28:42.844Z,1020.93
2022-10-27T05:29:42.842Z,1020.97
2022-10-27T05:30:42.828Z,1020.99
2022-10-27T05:31:42.822Z,1020.99
2022-10-27T05:32:44.915Z,1020.99
2022-10-27T05:33:42.818Z,1021.00
2022-10-27T05:34:42.793Z,1020.99
2022-10-27T05:35:42.788Z,1021.03
2022-10-27T05:36:43.902Z,1021.05
2022-10-27T05:37:42.772Z,1021.07
2022-10-27T05:38:42.770Z,1021.05
2022-10-27T05:39:42.752Z,1021.03
2022-10-27T05:40:42.754Z,1021.05
2022-10-27T05:41:42.738Z,1021.03
2022-10-27T05:42:42.733Z,1021.03
2022-10-27T05:43:42.824Z,1021.03
2022-10-27T05:44:42.713Z,1021.05
2022-10-27T05:45:42.707Z,1021.02
2022-10-27T05:46:42.700Z,1021.06
2022-10-27T05:47:42.684Z,1021.12
2022-10-27T05:48:42.685Z,1021.12
2022-10-27T05:49:42.669Z,1021.11
2022-10-27T05:51:42.659Z,1021.12
2022-10-27T05:52:42.650Z,1021.08
2022-10-27T05:53:42.643Z,1021.10
2022-10-27T05:54:42.629Z,1021.06
2022-10-27T05:55:42.626Z,1021.05
2022-10-27T05:56:42.614Z,1021.06
2022-10-27T05:57:42.608Z,1021.05
2022-10-27T05:58:42.603Z,1021.03
2022-10-27T05:59:42.593Z,1021.05
2022-10-27T06:00:42.596Z,1021.05
2022-10-27T06:01:42.705Z,1021.03
2022-10-27T06:02:42.568Z,1021.01
2022-10-27T06:03:42.563Z,1021.06
2022-10-27T06:04:42.564Z,1021.02
2022-10-27T06:05:42.550Z,1021.06
2022-10-27T06:06:42.537Z,1021.02
2022-10-27T06:07:42.520Z,1021.00
2022-10-27T06:08:42.516Z,1021.04
2022-10-27T06:09:42.512Z,1021.06
2022-10-27T06:10:42.508Z,1021.08
2022-10-27T06:11:42.493Z,1021.10
2022-10-27T06:12:42.487Z,1021.10
2022-10-27T06:13:42.490Z,1021.13
2022-10-27T06:14:42.496Z,1021.12
2022-10-27T06:16:42.454Z,1021.16
2022-10-27T06:17:42.448Z,1021.10
2022-10-27T06:18:42.464Z,1021.09
2022-10-27T06:19:42.430Z,1021.06
2022-10-27T06:20:42.421Z,1021.08
2022-10-27T06:21:42.412Z,1021.05
2022-10-27T06:22:42.406Z,1021.08
2022-10-27T06:23:42.397Z,1021.06
2022-10-27T06:24:42.389Z,1021.08
2022-10-27T06:25:42.383Z,1021.09
2022-10-27T06:26:42.374Z,1021.10
2022-10-27T06:27:42.361Z,1021.10
2022-10-27T06:28:42.352Z,1021.13
2022-10-27T06:29:42.349Z,1021.19
2022-10-27T06:30:42.350Z,1021.19
2022-10-27T06:31:42.333Z,1021.19
2022-10-27T06:32:42.324Z,1021.19
2022-10-27T06:33:42.317Z,1021.25
2022-10-27T06:34:42.314Z,1021.19
2022-10-27T06:35:42.297Z,1021.20
2022-10-27T06:36:42.293Z,1021.22
2022-10-27T06:37:42.287Z,1021.21
2022-10-27T06:38:44.421Z,1021.22
2022-10-27T06:39:42.274Z,1021.21
2022-10-27T06:40:42.264Z,1021.25
2022-10-27T06:41:42.352Z,1021.26
2022-10-27T06:42:55.312Z,1021.23
2022-10-27T06:43:42.239Z,1021.25
2022-10-27T06:44:42.232Z,1021.26
2022-10-27T06:45:42.222Z,1021.28
2022-10-27T06:46:42.221Z,1021.27
2022-10-27T06:47:42.209Z,1021.31
2022-10-27T06:48:42.205Z,1021.28
2022-10-27T06:49:42.190Z,1021.29
2022-10-27T06:50:42.194Z,1021.29
2022-10-27T06:51:42.168Z,1021.31
2022-10-27T06:52:42.169Z,1021.32
2022-10-27T06:53:42.168Z,1021.39
2022-10-27T06:54:42.154Z,1021.39
2022-10-27T06:55:42.145Z,1021.37
2022-10-27T06:56:42.137Z,1021.42
2022-10-27T06:57:42.136Z,1021.39
2022-10-27T06:58:42.129Z,1021.45
2022-10-27T06:59:42.113Z,1021.43
2022-10-27T07:00:42.111Z,1021.47
2022-10-27T07:01:42.158Z,1021.43
2022-10-27T07:02:42.098Z,1021.45
2022-10-27T07:03:42.081Z,1021.44
2022-10-27T07:04:42.076Z,1021.47
2022-10-27T07:05:42.077Z,1021.46
2022-10-27T07:06:42.063Z,1021.46
2022-10-27T07:07:42.070Z,1021.47
2022-10-27T07:08:42.132Z,1021.48
2022-10-27T07:09:42.042Z,1021.48
2022-10-27T07:10:42.033Z,1021.50
2022-10-27T07:11:42.043Z,1021.51
2022-10-27T07:12:42.018Z,1021.53
2022-10-27T07:13:42.010Z,1021.51
2022-10-27T07:14:42.009Z,1021.53
2022-10-27T07:15:41.998Z,1021.54
2022-10-27T07:16:41.994Z,1021.53
2022-10-27T07:17:41.977Z,1021.56
2022-10-27T07:18:41.976Z,1021.56
2022-10-27T07:19:41.970Z,1021.57
2022-10-27T07:20:41.960Z,1021.58
2022-10-27T07:21:41.956Z,1021.59
2022-10-27T07:22:41.946Z,1021.61
2022-10-27T07:23:41.941Z,1021.60
2022-10-27T07:24:41.927Z,1021.62
2022-10-27T07:25:41.971Z,1021.63
2022-10-27T07:26:41.912Z,1021.62
2022-10-27T07:27:41.910Z,1021.66
2022-10-27T07:28:41.902Z,1021.66
2022-10-27T07:29:41.896Z,1021.69
2022-10-27T07:30:41.889Z,1021.68
2022-10-27T07:31:41.881Z,1021.65
2022-10-27T07:32:41.875Z,1021.62
2022-10-27T07:33:41.869Z,1021.64
2022-10-27T07:34:41.871Z,1021.65
2022-10-27T07:35:41.854Z,1021.66
2022-10-27T07:36:41.865Z,1021.67
2022-10-27T07:37:41.840Z,1021.68
2022-10-27T07:38:41.860Z,1021.67
2022-10-27T07:39:41.823Z,1021.66
2022-10-27T07:40:41.819Z,1021.67
2022-10-27T07:41:41.818Z,1021.63
2022-10-27T07:42:41.808Z,1021.68
2022-10-27T07:43:41.803Z,1021.67
2022-10-27T07:44:41.796Z,1021.68
2022-10-27T07:45:41.790Z,1021.69
2022-10-27T07:46:41.819Z,1021.70
2022-10-27T07:47:41.774Z,1021.71
2022-10-27T07:48:41.763Z,1021.73
2022-10-27T07:49:41.777Z,1021.78
2022-10-27T07:50:41.795Z,1021.71
2022-10-27T07:51:41.747Z,1021.72
2022-10-27T07:52:41.740Z,1021.73
2022-10-27T07:53:41.735Z,1021.74
2022-10-27T07:54:41.726Z,1021.73
2022-10-27T07:55:41.721Z,1021.77
2022-10-27T07:56:41.745Z,1021.77
2022-10-27T07:57:41.708Z,1021.79
2022-10-27T07:58:41.703Z,1021.78
2022-10-27T07:59:41.696Z,1021.81
2022-10-27T08:00:41.689Z,1021.80
2022-10-27T08:01:41.812Z,1021.83
2022-10-27T08:02:41.676Z,1021.84
2022-10-27T08:03:42.340Z,1021.84
2022-10-27T08:04:41.672Z,1021.85
2022-10-27T08:05:41.657Z,1021.87
2022-10-27T08:06:41.666Z,1021.88
2022-10-27T08:07:41.649Z,1021.89
2022-10-27T08:08:41.642Z,1021.92
2022-10-27T08:09:41.630Z,1021.89
2022-10-27T08:10:41.626Z,1021.92
2022-10-27T08:11:41.617Z,1021.93
2022-10-27T08:12:41.623Z,1021.93
2022-10-27T08:13:41.610Z,1021.90
2022-10-27T08:14:41.607Z,1021.94
2022-10-27T08:15:41.679Z,1021.93
2022-10-27T08:16:41.653Z,1021.94
2022-10-27T08:17:41.582Z,1021.94
2022-10-27T08:18:41.581Z,1021.96
2022-10-27T08:19:41.570Z,1021.99
2022-10-27T08:20:41.574Z,1021.97
2022-10-27T08:21:41.562Z,1021.96
2022-10-27T08:22:41.570Z,1021.98
2022-10-27T08:23:41.551Z,1021.99
2022-10-27T08:24:41.547Z,1022.03
2022-10-27T08:25:41.536Z,1022.07
2022-10-27T08:26:41.532Z,1022.07
2022-10-27T08:27:41.523Z,1022.13
2022-10-27T08:28:41.519Z,1022.09
2022-10-27T08:29:41.515Z,1022.12
2022-10-27T08:30:45.837Z,1022.09
2022-10-27T08:31:41.503Z,1022.10
2022-10-27T08:32:41.510Z,1022.12
2022-10-27T08:33:41.488Z,1022.12
2022-10-27T08:34:41.485Z,1022.12
2022-10-27T08:35:41.480Z,1022.11
2022-10-27T08:36:41.473Z,1022.09
2022-10-27T08:37:41.469Z,1022.06
2022-10-27T08:38:41.472Z,1022.07
2022-10-27T08:39:41.456Z,1022.13
2022-10-27T08:40:41.528Z,1022.13
2022-10-27T08:41:41.442Z,1022.14
2022-10-27T08:42:41.442Z,1022.17
2022-10-27T08:43:41.446Z,1022.19
2022-10-27T08:44:41.446Z,1022.20
2022-10-27T08:45:41.434Z,1022.20
2022-10-27T08:46:41.424Z,1022.22
2022-10-27T08:47:41.411Z,1022.17
2022-10-27T08:48:41.410Z,1022.17
2022-10-27T08:49:43.465Z,1022.12
2022-10-27T08:50:41.397Z,1022.14
2022-10-27T08:51:41.392Z,1022.15
2022-10-27T08:52:41.391Z,1022.16
2022-10-27T08:53:41.382Z,1022.14
2022-10-27T08:54:41.379Z,1022.13
2022-10-27T08:55:41.368Z,1022.14
2022-10-27T08:56:41.364Z,1022.18
2022-10-27T08:57:41.353Z,1022.15
2022-10-27T08:58:41.356Z,1022.14
2022-10-27T08:59:44.188Z,1022.15
2022-10-27T09:00:41.345Z,1022.14
2022-10-27T09:01:41.473Z,1022.17
2022-10-27T09:02:41.438Z,1022.17
2022-10-27T09:03:41.328Z,1022.17
2022-10-27T09:04:41.322Z,1022.18
2022-10-27T09:05:41.316Z,1022.20
2022-10-27T09:06:41.309Z,1022.18
2022-10-27T09:07:41.306Z,1022.18
2022-10-27T09:08:41.303Z,1022.16
2022-10-27T09:09:41.385Z,1022.14
2022-10-27T09:10:41.295Z,1022.13
2022-10-27T09:11:41.293Z,1022.13
2022-10-27T09:12:41.281Z,1022.07
2022-10-27T09:13:41.280Z,1022.09
2022-10-27T09:14:44.115Z,1022.10
2022-10-27T09:15:41.270Z,1022.14
2022-10-27T09:16:41.260Z,1022.13
2022-10-27T09:17:41.266Z,1022.14
2022-10-27T09:18:41.255Z,1022.15
2022-10-27T09:19:41.246Z,1022.16
2022-10-27T09:20:41.251Z,1022.15
2022-10-27T09:21:42.130Z,1022.12
2022-10-27T09:22:41.242Z,1022.13
2022-10-27T09:23:41.223Z,1022.11
2022-10-27T09:24:41.226Z,1022.13
2022-10-27T09:25:41.253Z,1022.12
2022-10-27T09:26:41.222Z,1022.15
2022-10-27T09:27:41.210Z,1022.09
2022-10-27T09:28:41.207Z,1022.07
2022-10-27T09:29:41.198Z,1022.08
2022-10-27T09:30:41.194Z,1022.06
2022-10-27T09:31:41.182Z,1022.09
2022-10-27T09:32:41.182Z,1022.09
2022-10-27T09:33:41.179Z,1022.14
2022-10-27T09:34:41.176Z,1022.14
2022-10-27T09:35:41.170Z,1022.14
2022-10-27T09:36:41.163Z,1022.13
2022-10-27T09:37:41.164Z,1022.09
2022-10-27T09:38:41.159Z,1022.10
2022-10-27T09:39:41.156Z,1022.09
2022-10-27T09:40:41.143Z,1022.10
2022-10-27T09:41:41.141Z,1022.09
2022-10-27T09:42:41.134Z,1022.09
2022-10-27T09:43:41.138Z,1022.06
2022-10-27T09:44:41.131Z,1022.09
2022-10-27T09:45:41.124Z,1022.10
2022-10-27T09:46:41.124Z,1022.10
2022-10-27T09:47:41.117Z,1022.09
2022-10-27T09:48:41.114Z,1022.10
2022-10-27T09:49:41.101Z,1022.09
2022-10-27T09:50:41.108Z,1022.04
2022-10-27T09:51:41.098Z,1022.06
2022-10-27T09:52:41.093Z,1022.06
2022-10-27T09:53:41.090Z,1022.06
2022-10-27T09:54:41.094Z,1022.08
2022-10-27T09:55:41.099Z,1022.07
2022-10-27T09:56:41.080Z,1022.07
2022-10-27T09:57:41.078Z,1022.06
2022-10-27T09:58:41.076Z,1022.05
2022-10-27T09:59:41.063Z,1022.06
2022-10-27T10:00:41.069Z,1022.05
2022-10-27T10:01:41.127Z,1022.05
2022-10-27T10:02:45.666Z,1022.07
2022-10-27T10:03:41.051Z,1022.07
2022-10-27T10:04:41.053Z,1022.05
2022-10-27T10:05:41.038Z,1022.06
2022-10-27T10:06:41.038Z,1022.01
2022-10-27T10:07:41.025Z,1022.06
2022-10-27T10:08:41.026Z,1022.02
2022-10-27T10:09:41.032Z,1022.05
2022-10-27T10:10:41.016Z,1022.02
2022-10-27T10:11:41.030Z,1022.04
2022-10-27T10:12:41.013Z,1022.05
2022-10-27T10:13:41.012Z,1022.12
2022-10-27T10:14:41.022Z,1022.14
2022-10-27T10:15:40.999Z,1022.17
2022-10-27T10:16:41.001Z,1022.15
2022-10-27T10:17:40.989Z,1022.19
2022-10-27T10:18:41.027Z,1022.20
2022-10-27T10:19:40.984Z,1022.21
2022-10-27T10:21:40.977Z,1022.22
2022-10-27T10:22:43.131Z,1022.23
2022-10-27T10:23:40.970Z,1022.19
2022-10-27T10:24:40.968Z,1022.22
2022-10-27T10:25:40.964Z,1022.20
2022-10-27T10:26:40.955Z,1022.19
2022-10-27T10:27:40.950Z,1022.15
2022-10-27T10:28:40.953Z,1022.13
2022-10-27T10:29:40.949Z,1022.15
2022-10-27T10:30:40.952Z,1022.09
2022-10-27T10:31:40.941Z,1022.12
2022-10-27T10:32:40.947Z,1022.11
2022-10-27T10:33:40.935Z,1022.06
2022-10-27T10:34:40.933Z,1022.11
2022-10-27T10:35:40.950Z,1022.11
2022-10-27T10:36:40.921Z,1022.12
2022-10-27T10:37:40.920Z,1022.09
2022-10-27T10:38:40.916Z,1022.12
2022-10-27T10:39:40.925Z,1022.08
2022-10-27T10:40:40.921Z,1022.06
2022-10-27T10:41:40.908Z,1022.06
2022-10-27T10:42:40.910Z,1022.04
2022-10-27T10:43:40.904Z,1022.04
2022-10-27T10:44:40.901Z,1022.06
2022-10-27T10:45:40.937Z,1022.04
2022-10-27T10:46:40.890Z,1022.05
2022-10-27T10:47:40.887Z,1022.04
2022-10-27T10:48:40.889Z,1022.00
2022-10-27T10:49:40.879Z,1022.02
2022-10-27T10:50:40.890Z,1021.99
2022-10-27T10:51:40.880Z,1022.02
2022-10-27T10:52:40.880Z,1022.02
2022-10-27T10:53:40.868Z,1022.01
2022-10-27T10:54:40.868Z,1022.03
2022-10-27T10:55:40.870Z,1022.00
2022-10-27T10:56:40.854Z,1022.04
2022-10-27T10:57:40.854Z,1022.06
2022-10-27T10:58:40.853Z,1022.06
2022-10-27T10:59:40.848Z,1022.05
2022-10-27T11:00:40.895Z,1022.02
2022-10-27T11:01:41.027Z,1022.02
2022-10-27T11:02:40.843Z,1022.01
2022-10-27T11:03:40.836Z,1022.00
2022-10-27T11:04:40.833Z,1022.01
2022-10-27T11:05:40.833Z,1021.98
2022-10-27T11:06:40.831Z,1021.98
2022-10-27T11:07:40.823Z,1021.98
2022-10-27T11:08:42.338Z,1021.95
2022-10-27T11:09:40.817Z,1021.97
2022-10-27T11:10:40.832Z,1021.96
2022-10-27T11:11:40.811Z,1021.96
2022-10-27T11:12:40.820Z,1021.92
2022-10-27T11:13:40.811Z,1021.91
2022-10-27T11:14:40.803Z,1021.95
2022-10-27T11:15:40.814Z,1021.96
2022-10-27T11:16:40.792Z,1021.96
2022-10-27T11:17:40.791Z,1021.94
2022-10-27T11:18:40.791Z,1021.92
2022-10-27T11:19:40.788Z,1021.93
2022-10-27T11:20:40.793Z,1021.90
2022-10-27T11:21:40.806Z,1021.92
2022-10-27T11:22:40.818Z,1021.89
2022-10-27T11:23:40.777Z,1021.92
2022-10-27T11:24:40.773Z,1021.89
2022-10-27T11:25:40.772Z,1021.90
2022-10-27T11:26:40.765Z,1021.86
2022-10-27T11:27:40.761Z,1021.85
2022-10-27T11:28:40.761Z,1021.88
2022-10-27T11:29:40.756Z,1021.89
2022-10-27T11:30:40.761Z,1021.89
2022-10-27T11:31:40.751Z,1021.85
2022-10-27T11:32:40.750Z,1021.83
2022-10-27T11:33:40.754Z,1021.81
2022-10-27T11:34:40.745Z,1021.83
2022-10-27T11:35:40.742Z,1021.80
2022-10-27T11:36:40.745Z,1021.77
2022-10-27T11:37:40.731Z,1021.81
2022-10-27T11:38:40.734Z,1021.81
2022-10-27T11:39:40.729Z,1021.84
2022-10-27T11:40:40.728Z,1021.83
2022-10-27T11:41:40.732Z,1021.86
2022-10-27T11:42:40.723Z,1021.83
2022-10-27T11:43:43.570Z,1021.84
2022-10-27T11:44:40.716Z,1021.82
2022-10-27T11:45:40.714Z,1021.84
2022-10-27T11:46:40.769Z,1021.85
2022-10-27T11:47:40.709Z,1021.85
2022-10-27T11:48:40.703Z,1021.81
2022-10-27T11:49:40.703Z,1021.79
2022-10-27T11:50:40.701Z,1021.78
2022-10-27T11:51:40.700Z,1021.77
2022-10-27T11:52:40.697Z,1021.76
2022-10-27T11:53:40.695Z,1021.81
2022-10-27T11:54:40.702Z,1021.77
2022-10-27T11:55:40.689Z,1021.78
2022-10-27T11:56:40.685Z,1021.84
2022-10-27T11:57:40.690Z,1021.80
2022-10-27T11:58:40.676Z,1021.76
2022-10-27T11:59:40.678Z,1021.76
2022-10-27T12:00:40.676Z,1021.73
2022-10-27T12:01:40.745Z,1021.72
2022-10-27T12:02:40.704Z,1021.72
2022-10-27T12:03:42.420Z,1021.72
2022-10-27T12:04:40.665Z,1021.71
2022-10-27T12:05:40.675Z,1021.69
2022-10-27T12:06:40.662Z,1021.68
2022-10-27T12:07:40.655Z,1021.67
2022-10-27T12:08:40.662Z,1021.65
2022-10-27T12:09:40.649Z,1021.67